createdAt,value
2019-06-07T00:00:40.165Z,9.73
2019-06-07T00:03:09.277Z,10.17
2019-06-07T00:05:38.636Z,8.73
2019-06-07T00:08:17.119Z,9.27
2019-06-07T00:10:42.026Z,8.90
2019-06-07T00:13:15.216Z,10.47
2019-06-07T00:15:44.296Z,9.90
2019-06-07T00:18:20.023Z,9.00
2019-06-07T00:20:46.604Z,8.93
2019-06-07T00:23:22.108Z,10.47
2019-06-07T00:25:49.069Z,7.80
2019-06-07T00:28:20.134Z,10.80
2019-06-07T00:31:03.375Z,11.17
2019-06-07T00:33:34.041Z,10.00
2019-06-07T00:36:05.838Z,12.00
2019-06-07T00:38:36.156Z,7.93
2019-06-07T00:41:06.533Z,8.70
2019-06-07T00:43:36.890Z,9.60
2019-06-07T00:46:07.297Z,10.40
2019-06-07T00:48:37.626Z,10.00
2019-06-07T00:51:07.999Z,9.83
2019-06-07T00:53:38.369Z,9.57
2019-06-07T00:56:08.726Z,8.10
2019-06-07T00:58:39.080Z,9.97
2019-06-07T01:01:09.482Z,6.83
2019-06-07T01:03:39.820Z,9.00
2019-06-07T01:06:10.126Z,9.10
2019-06-07T01:08:40.459Z,9.53
2019-06-07T01:11:10.826Z,8.10
2019-06-07T01:13:41.161Z,10.37
2019-06-07T01:16:11.537Z,8.67
2019-06-07T01:18:46.522Z,6.97
2019-06-07T01:21:15.836Z,11.23
2019-06-07T01:24:08.119Z,8.80
2019-06-07T01:26:20.523Z,11.40
2019-06-07T01:28:51.934Z,12.00
2019-06-07T01:31:24.843Z,9.90
2019-06-07T01:33:54.260Z,8.97
2019-06-07T01:36:28.921Z,11.77
2019-06-07T01:38:56.562Z,11.00
2019-06-07T01:41:30.120Z,9.93
2019-06-07T01:43:58.774Z,16.80
2019-06-07T01:46:29.108Z,9.93
2019-06-07T01:48:59.528Z,12.07
2019-06-07T01:51:30.778Z,11.13
2019-06-07T01:54:48.505Z,11.13
2019-06-07T01:56:33.186Z,14.23
2019-06-07T01:59:04.089Z,14.37
2019-06-07T02:01:35.075Z,9.80
2019-06-07T02:04:06.023Z,9.77
2019-06-07T02:06:36.292Z,12.37
2019-06-07T02:09:08.458Z,8.43
2019-06-07T02:11:38.859Z,17.90
2019-06-07T02:14:09.358Z,11.77
2019-06-07T02:16:39.712Z,10.53
2019-06-07T02:19:10.030Z,12.37
2019-06-07T02:21:40.449Z,10.47
2019-06-07T02:24:24.462Z,9.30
2019-06-07T02:26:51.314Z,10.43
2019-06-07T02:29:22.914Z,10.87
2019-06-07T02:31:53.360Z,9.50
2019-06-07T02:34:24.916Z,10.87
2019-06-07T02:36:55.782Z,9.17
2019-06-07T02:39:28.815Z,13.13
2019-06-07T02:41:58.126Z,7.77
2019-06-07T02:44:32.330Z,7.87
2019-06-07T02:47:00.426Z,9.37
2019-06-07T02:49:36.239Z,8.63
2019-06-07T02:52:02.766Z,11.40
2019-06-07T02:54:36.975Z,10.67
2019-06-07T02:57:05.114Z,11.83
2019-06-07T03:00:02.900Z,8.27
2019-06-07T03:02:26.645Z,9.33
2019-06-07T03:04:55.810Z,8.63
2019-06-07T03:07:28.283Z,8.67
2019-06-07T03:10:00.321Z,20.57
2019-06-07T03:12:33.611Z,9.83
2019-06-07T03:15:04.773Z,12.60
2019-06-07T03:17:48.784Z,7.50
2019-06-07T03:20:20.040Z,12.53
2019-06-07T03:22:51.867Z,10.53
2019-06-07T03:25:22.206Z,8.83
2019-06-07T03:27:52.625Z,8.30
2019-06-07T03:30:38.911Z,15.20
2019-06-07T03:32:54.866Z,9.10
2019-06-07T03:35:27.608Z,8.77
2019-06-07T03:37:57.248Z,14.07
2019-06-07T03:40:29.074Z,12.30
2019-06-07T03:42:59.487Z,11.23
2019-06-07T03:45:30.763Z,12.97
2019-06-07T03:48:01.806Z,10.30
2019-06-07T03:50:35.664Z,12.87
2019-06-07T03:53:04.107Z,11.50
2019-06-07T03:55:37.772Z,8.17
2019-06-07T04:00:42.744Z,10.37
2019-06-07T04:03:10.384Z,14.80
2019-06-07T04:05:43.461Z,9.00
2019-06-07T04:08:12.683Z,10.50
2019-06-07T04:10:58.449Z,10.13
2019-06-07T04:13:17.037Z,16.37
2019-06-07T04:15:47.420Z,11.40
2019-06-07T04:18:17.789Z,14.20
2019-06-07T04:20:48.106Z,11.50
2019-06-07T04:23:27.937Z,11.17
2019-06-07T04:25:50.857Z,12.13
2019-06-07T04:29:25.047Z,8.93
2019-06-07T04:31:05.534Z,9.13
2019-06-07T04:33:40.832Z,9.70
2019-06-07T04:36:07.840Z,12.60
2019-06-07T04:38:42.614Z,11.23
2019-06-07T04:41:15.107Z,11.23
2019-06-07T04:43:47.062Z,10.50
2019-06-07T04:46:20.295Z,9.67
2019-06-07T04:48:52.182Z,12.47
2019-06-07T04:51:25.858Z,11.47
2019-06-07T04:53:56.292Z,10.60
2019-06-07T04:56:26.576Z,12.00
2019-06-07T04:58:56.988Z,15.37
2019-06-07T05:01:30.627Z,11.87
2019-06-07T05:03:59.884Z,9.30
2019-06-07T05:06:32.934Z,10.00
2019-06-07T05:09:03.272Z,15.03
2019-06-07T05:11:35.894Z,11.50
2019-06-07T05:14:06.138Z,18.00
2019-06-07T05:16:40.706Z,8.50
2019-06-07T05:19:09.464Z,13.13
2019-06-07T05:22:01.633Z,12.50
2019-06-07T05:27:08.936Z,9.10
2019-06-07T05:29:41.645Z,12.47
2019-06-07T05:32:14.761Z,11.93
2019-06-07T05:35:08.040Z,12.07
2019-06-07T05:37:41.067Z,10.00
2019-06-07T05:40:34.893Z,17.90
2019-06-07T05:43:06.210Z,8.53
2019-06-07T05:45:44.131Z,13.93
2019-06-07T05:48:10.984Z,9.63
2019-06-07T05:50:50.006Z,12.00
2019-06-07T05:53:13.369Z,11.03
2019-06-07T05:55:46.848Z,10.30
2019-06-07T05:58:15.898Z,11.90
2019-06-07T06:00:47.590Z,9.93
2019-06-07T06:03:19.117Z,11.63
2019-06-07T06:05:55.057Z,11.47
2019-06-07T06:08:39.592Z,13.50
2019-06-07T06:11:12.494Z,15.13
2019-06-07T06:14:03.047Z,11.43
2019-06-07T06:16:15.265Z,11.57
2019-06-07T06:18:47.188Z,10.23
2019-06-07T06:21:46.782Z,15.10
2019-06-07T06:24:17.145Z,19.10
2019-06-07T06:26:52.239Z,12.27
2019-06-07T06:29:19.736Z,12.67
2019-06-07T06:32:39.771Z,13.30
2019-06-07T06:34:22.462Z,9.70
2019-06-07T06:36:52.788Z,12.30
2019-06-07T06:39:23.262Z,11.80
2019-06-07T06:42:01.230Z,13.23
2019-06-07T06:44:25.748Z,11.73
2019-06-07T06:46:58.164Z,9.97
2019-06-07T06:49:28.208Z,13.70
2019-06-07T06:51:58.530Z,11.83
2019-06-07T06:54:40.751Z,13.07
2019-06-07T06:57:17.858Z,12.57
2019-06-07T06:59:39.415Z,9.77
2019-06-07T07:02:05.393Z,11.10
2019-06-07T07:04:36.189Z,11.50
2019-06-07T07:07:06.640Z,9.03
2019-06-07T07:09:37.542Z,10.83
2019-06-07T07:12:14.579Z,11.93
2019-06-07T07:14:42.239Z,11.07
2019-06-07T07:17:11.824Z,12.10
2019-06-07T07:19:43.130Z,11.10
2019-06-07T07:22:14.158Z,14.50
2019-06-07T07:24:44.583Z,9.17
2019-06-07T07:27:16.040Z,13.23
2019-06-07T07:29:49.630Z,11.50
2019-06-07T07:32:18.274Z,10.23
2019-06-07T07:34:54.367Z,11.40
2019-06-07T07:37:21.967Z,10.17
2019-06-07T07:39:57.028Z,8.27
2019-06-07T07:42:24.352Z,13.07
2019-06-07T07:44:56.721Z,10.43
2019-06-07T07:47:26.684Z,14.30
2019-06-07T07:49:59.150Z,8.27
2019-06-07T11:44:36.039Z,6.27
2019-06-07T11:47:08.207Z,5.87
2019-06-07T11:49:38.616Z,9.00
2019-06-07T11:52:09.326Z,7.07
2019-06-07T11:54:39.626Z,7.27
2019-06-07T11:57:10.908Z,7.53
2019-06-07T12:45:45.647Z,6.47
2019-06-07T12:48:19.295Z,6.07
2019-06-07T12:50:48.125Z,6.10
2019-06-07T12:53:22.734Z,8.30
2019-06-07T12:55:50.532Z,5.87
2019-06-07T12:58:25.880Z,7.00
2019-06-07T13:07:22.917Z,5.43
2019-06-07T13:09:54.893Z,5.20
2019-06-07T13:12:25.184Z,6.80
2019-06-07T13:15:24.499Z,5.90
2019-06-07T13:17:54.603Z,6.60
2019-06-07T13:20:24.961Z,9.20
2019-06-07T13:22:55.394Z,6.10
2019-06-07T13:25:43.498Z,7.90
2019-06-07T13:27:57.694Z,6.70
2019-06-07T13:30:28.936Z,6.70
2019-06-07T13:32:59.416Z,7.50
2019-06-07T13:35:29.824Z,6.63
2019-06-07T13:38:01.292Z,6.27
2019-06-07T13:40:31.679Z,7.13
2019-06-07T13:43:21.445Z,7.20
2019-06-07T13:45:51.909Z,7.63
2019-06-07T13:48:23.433Z,7.00
2019-06-07T13:50:53.882Z,6.10
2019-06-07T13:53:25.037Z,8.57
2019-06-07T13:55:55.503Z,8.00
2019-06-07T13:58:28.538Z,6.07
2019-06-07T14:00:59.158Z,7.47
2019-06-07T14:03:33.645Z,6.10
2019-06-07T14:06:04.304Z,6.90
2019-06-07T14:12:03.359Z,5.67
2019-06-07T14:14:33.671Z,6.47
2019-06-07T14:17:04.009Z,7.00
2019-06-07T14:31:36.261Z,7.63
2019-06-07T14:34:06.716Z,6.77
2019-06-07T14:36:37.111Z,7.87
2019-06-07T14:39:08.002Z,6.90
2019-06-07T14:41:38.366Z,7.00
2019-06-07T14:44:09.976Z,7.13
2019-06-07T14:46:40.336Z,7.00
2019-06-07T14:49:10.662Z,5.43
2019-06-07T14:51:41.063Z,5.33
2019-06-07T14:54:11.340Z,7.00
2019-06-07T14:56:41.737Z,6.87
2019-06-07T14:59:12.122Z,7.60
2019-06-07T15:01:42.475Z,6.47
2019-06-07T15:04:12.720Z,6.70
2019-06-07T15:06:43.070Z,6.23
2019-06-07T15:09:13.372Z,6.37
2019-06-07T15:11:43.762Z,5.70
2019-06-07T15:14:16.848Z,5.90
2019-06-07T15:16:47.429Z,5.87
2019-06-07T15:19:18.071Z,6.80
2019-06-07T15:21:48.562Z,6.03
2019-06-07T15:24:18.989Z,6.93
2019-06-07T15:26:49.400Z,6.50
2019-06-07T15:29:19.825Z,6.60
2019-06-07T15:31:51.294Z,6.37
2019-06-07T15:34:21.598Z,10.47
2019-06-07T15:36:52.036Z,8.27
2019-06-07T15:39:22.468Z,11.30
2019-06-07T15:41:52.861Z,10.43
2019-06-07T15:44:24.558Z,8.00
2019-06-07T15:46:54.926Z,9.60
2019-06-07T15:49:25.290Z,7.13
2019-06-07T15:58:16.909Z,9.87
2019-06-07T16:00:50.014Z,9.93
2019-06-07T16:13:04.236Z,8.70
2019-06-07T16:25:02.936Z,11.97
2019-06-07T16:27:34.393Z,12.10
2019-06-07T16:54:53.946Z,13.10
2019-06-07T16:57:24.349Z,12.87
2019-06-07T16:59:54.720Z,9.73
2019-06-07T17:02:25.102Z,11.30
2019-06-07T17:04:55.475Z,9.30
2019-06-07T17:07:27.553Z,11.53
2019-06-07T17:09:57.934Z,9.30
2019-06-07T17:18:47.045Z,8.80
2019-06-07T17:21:17.529Z,8.80
2019-06-07T17:23:47.881Z,8.83
2019-06-07T17:26:19.148Z,10.60
2019-06-07T17:28:50.068Z,9.97
2019-06-07T17:31:20.460Z,8.03
2019-06-07T17:33:50.833Z,9.27
2019-06-07T17:42:42.754Z,7.03
2019-06-07T17:51:44.151Z,8.80
2019-06-07T17:54:14.497Z,9.53
2019-06-07T17:56:46.199Z,12.53
2019-06-07T18:02:35.520Z,8.23
2019-06-07T18:05:06.324Z,12.70
2019-06-07T18:07:36.786Z,12.47
2019-06-07T18:10:08.528Z,8.83
2019-06-07T18:12:38.928Z,9.93
2019-06-07T18:18:21.036Z,11.30
2019-06-07T18:20:51.728Z,9.57
2019-06-07T18:23:22.282Z,12.03
2019-06-07T18:29:02.182Z,10.20
2019-06-07T18:31:32.516Z,10.60
2019-06-07T18:34:02.934Z,10.33
2019-06-07T18:36:33.313Z,9.73
2019-06-07T18:39:04.778Z,10.00
2019-06-07T18:41:36.768Z,9.03
2019-06-07T18:47:16.432Z,11.67
2019-06-07T18:52:46.728Z,11.00
2019-06-07T18:55:17.121Z,11.87
2019-06-07T18:57:48.146Z,9.80
2019-06-07T19:00:20.266Z,9.10
2019-06-07T19:02:51.882Z,9.57
2019-06-07T19:05:22.726Z,10.90
2019-06-07T19:07:54.537Z,9.60
2019-06-07T19:10:48.559Z,12.00
2019-06-07T19:13:19.115Z,12.03
2019-06-07T19:15:49.456Z,10.23
2019-06-07T19:18:19.835Z,9.33
2019-06-07T19:20:50.768Z,9.73
2019-06-07T19:23:21.428Z,12.47
2019-06-07T19:25:52.182Z,10.30
2019-06-07T19:28:22.508Z,11.43
2019-06-07T19:30:53.048Z,10.53
2019-06-07T19:33:23.425Z,12.03
2019-06-07T19:35:53.758Z,10.90
2019-06-07T19:38:24.180Z,13.00
2019-06-07T19:40:55.792Z,13.00
2019-06-07T19:43:27.311Z,12.40
2019-06-07T19:45:58.284Z,11.30
2019-06-07T19:48:28.680Z,13.33
2019-06-07T19:50:59.087Z,10.97
2019-06-07T19:53:29.424Z,14.50
2019-06-07T19:55:59.782Z,14.50
2019-06-07T19:58:30.088Z,13.30
2019-06-07T20:01:02.039Z,12.10
2019-06-07T20:03:32.498Z,14.60
2019-06-07T20:06:20.240Z,14.13
2019-06-07T20:08:50.629Z,14.00
2019-06-07T20:11:20.954Z,12.03
2019-06-07T20:13:51.330Z,14.23
2019-06-07T20:16:21.638Z,14.33
2019-06-07T20:18:51.982Z,15.60
2019-06-07T20:21:25.744Z,13.60
2019-06-07T20:23:56.784Z,11.70
2019-06-07T20:26:27.096Z,13.13
2019-06-07T20:28:57.446Z,13.00
2019-06-07T20:31:28.612Z,12.90
2019-06-07T20:33:58.982Z,14.97
2019-06-07T20:36:29.310Z,11.73
2019-06-07T20:39:00.179Z,14.00
2019-06-07T20:41:30.688Z,17.73
2019-06-07T20:44:01.738Z,15.80
2019-06-07T20:46:32.132Z,13.87
2019-06-07T20:49:02.497Z,21.10
2019-06-07T20:51:32.914Z,16.20
2019-06-07T20:54:05.553Z,17.67
2019-06-07T20:56:36.300Z,18.50
2019-06-07T20:59:08.807Z,15.20
2019-06-07T21:01:42.628Z,13.30
2019-06-07T21:04:11.314Z,15.70
2019-06-07T21:06:42.172Z,14.10
2019-06-07T21:09:12.744Z,14.80
2019-06-07T21:11:43.491Z,15.47
2019-06-07T21:14:19.354Z,13.57
2019-06-07T21:16:55.154Z,13.43
2019-06-07T21:19:44.794Z,16.97
2019-06-07T21:22:15.746Z,15.00
2019-06-07T21:24:46.268Z,16.70
2019-06-07T21:27:16.690Z,16.40
2019-06-07T21:29:47.086Z,14.50
2019-06-07T21:32:19.076Z,17.03
2019-06-07T21:34:49.450Z,16.93
2019-06-07T21:37:20.026Z,18.67
2019-06-07T21:39:50.989Z,15.17
2019-06-07T21:42:21.805Z,18.20
2019-06-07T21:44:52.308Z,16.00
2019-06-07T21:50:12.774Z,17.23
2019-06-07T21:52:44.294Z,17.83
2019-06-07T21:55:17.714Z,17.10
2019-06-07T21:57:48.744Z,17.87
2019-06-07T22:00:26.860Z,19.80
2019-06-07T22:02:58.860Z,18.33
2019-06-07T22:05:58.692Z,15.73
2019-06-07T22:08:29.532Z,17.63
2019-06-07T22:11:00.509Z,17.87
2019-06-07T22:13:30.974Z,18.10
2019-06-07T22:16:02.416Z,18.80
2019-06-07T22:18:34.700Z,21.20
2019-06-07T22:21:06.384Z,17.00
2019-06-07T22:23:42.939Z,17.80
2019-06-07T22:26:15.580Z,16.43
2019-06-07T22:28:46.120Z,22.93
2019-06-07T22:31:16.917Z,24.30
2019-06-07T22:33:48.532Z,24.60
2019-06-07T22:36:19.496Z,16.13
2019-06-07T22:38:52.357Z,15.83
2019-06-07T22:41:22.806Z,16.73
2019-06-07T22:43:53.306Z,20.47
2019-06-07T22:46:36.842Z,19.30
2019-06-07T22:48:58.718Z,19.07
2019-06-07T22:51:29.174Z,16.50
2019-06-07T22:53:59.718Z,18.23
2019-06-07T22:56:55.510Z,16.03
2019-06-07T22:59:25.943Z,20.90
2019-06-07T23:04:51.057Z,16.60
2019-06-07T23:07:21.400Z,15.67
2019-06-07T23:09:51.713Z,17.87
2019-06-07T23:12:22.114Z,15.83
2019-06-07T23:14:52.654Z,17.07
2019-06-07T23:17:24.262Z,22.63
2019-06-07T23:19:57.080Z,17.03
2019-06-07T23:22:27.416Z,25.27
2019-06-07T23:24:57.723Z,14.43
2019-06-07T23:27:28.228Z,14.93
2019-06-07T23:29:58.559Z,16.73
2019-06-07T23:32:28.912Z,17.10
2019-06-07T23:34:59.236Z,17.07
2019-06-07T23:37:29.615Z,16.60
2019-06-07T23:39:59.998Z,20.20
2019-06-07T23:42:30.301Z,19.13
2019-06-07T23:45:00.624Z,19.97
2019-06-07T23:47:30.912Z,21.23
2019-06-07T23:50:01.260Z,21.77
2019-06-07T23:52:31.544Z,21.27
2019-06-07T23:55:01.889Z,22.80
2019-06-07T23:57:32.412Z,19.80
